Time;durP1;ratioP1;P1;durP2;ratioP2;P2;SDS_P1;SDS_P2;PMS_P1;PMS_P2;Temp;Humidity;BMP_temperature;BMP_pressure;BME280_temperature;BME280_humidity;BME280_pressure;Samples;Min_cycle;Max_cycle;Signal;HPM_P1;HPM_P2
2022/12/26 00:01:39;;;;;;;5.55;2.22;;;;;;;10.40;100.00;100147.66;5071153;28;20039;-76
2022/12/26 00:04:05;;;;;;;4.10;1.75;;;;;;;10.30;100.00;100153.06;5071007;28;20024;-74
2022/12/26 00:06:31;;;;;;;3.13;1.40;;;;;;;10.28;100.00;100144.28;5070817;28;20044;-76
2022/12/26 00:08:58;;;;;;;5.00;1.83;;;;;;;10.30;100.00;100137.25;5070852;28;20031;-76
2022/12/26 00:11:24;;;;;;;3.28;1.40;;;;;;;10.34;100.00;100137.19;5067339;28;20036;-75
2022/12/26 00:14:02;;;;;;;3.63;1.65;;;;;;;10.37;100.00;100118.69;5070825;28;20064;-76
2022/12/26 00:16:28;;;;;;;4.05;1.35;;;;;;;10.39;100.00;100125.69;5070697;28;20036;-76
2022/12/26 00:18:53;;;;;;;3.50;1.60;;;;;;;10.43;100.00;100131.84;5069598;28;20119;-75
2022/12/26 00:21:19;;;;;;;2.78;1.13;;;;;;;10.51;100.00;100140.53;5070880;28;20040;-76
2022/12/26 00:23:45;;;;;;;3.15;1.13;;;;;;;10.57;100.00;100155.41;5070844;28;20441;-76
2022/12/26 00:26:16;;;;;;;3.33;0.90;;;;;;;10.62;100.00;100156.22;5070612;28;20120;-75
2022/12/26 00:28:42;;;;;;;2.53;1.42;;;;;;;10.69;100.00;100139.44;5069689;28;20509;-75
2022/12/26 00:31:11;;;;;;;3.38;1.40;;;;;;;10.75;100.00;100139.34;5069465;28;20037;-74
2022/12/26 00:33:37;;;;;;;1.73;0.70;;;;;;;10.76;100.00;100151.63;5078359;28;20028;-75
2022/12/26 00:36:08;;;;;;;3.17;1.20;;;;;;;10.80;100.00;100142.78;5070478;28;20482;-76
2022/12/26 00:38:36;;;;;;;2.35;1.00;;;;;;;10.80;100.00;100148.06;5070807;28;20150;-75
2022/12/26 00:41:02;;;;;;;2.45;0.80;;;;;;;10.80;100.00;100142.78;5066637;28;20048;-74
2022/12/26 00:43:27;;;;;;;2.63;0.90;;;;;;;10.87;100.00;100144.47;5070769;28;20025;-76
2022/12/26 00:45:52;;;;;;;4.28;1.13;;;;;;;10.90;100.00;100136.50;5069090;28;20036;-76
2022/12/26 00:48:18;;;;;;;2.70;1.33;;;;;;;10.94;100.00;100124.97;5072528;28;20040;-75
2022/12/26 00:50:43;;;;;;;1.40;0.70;;;;;;;10.96;100.00;100112.63;5074422;28;20043;-76
2022/12/26 00:53:10;;;;;;;2.50;1.30;;;;;;;11.02;100.00;100116.06;5072908;28;20067;-75
2022/12/26 00:55:35;;;;;;;4.10;1.23;;;;;;;11.04;100.00;100120.44;5074123;28;20044;-76
2022/12/26 00:58:01;;;;;;;2.60;0.95;;;;;;;11.08;100.00;100137.09;5074314;28;20032;-75
2022/12/26 01:00:26;;;;;;;2.08;0.82;;;;;;;11.11;100.00;100123.88;5074303;28;20410;-75
2022/12/26 01:02:51;;;;;;;2.85;1.10;;;;;;;11.17;100.00;100124.66;5074013;28;20037;-76
2022/12/26 01:05:17;;;;;;;2.45;1.20;;;;;;;11.21;100.00;100114.03;5074098;28;20062;-76
2022/12/26 01:07:42;;;;;;;2.80;0.98;;;;;;;11.23;100.00;100122.81;5074017;28;20114;-74
2022/12/26 01:10:10;;;;;;;2.45;1.10;;;;;;;11.25;100.00;100127.19;5074067;28;20108;-76
2022/12/26 01:12:36;;;;;;;3.63;1.20;;;;;;;11.27;100.00;100128.03;5073811;28;20052;-76
2022/12/26 01:15:01;;;;;;;3.30;1.42;;;;;;;11.29;100.00;100120.97;5073995;28;20049;-74
2022/12/26 01:17:27;;;;;;;2.75;1.25;;;;;;;11.26;100.00;100120.13;5073762;28;20046;-76
2022/12/26 01:19:53;;;;;;;2.85;1.02;;;;;;;11.31;100.00;100119.13;5073868;28;20033;-75
2022/12/26 01:22:19;;;;;;;3.25;1.17;;;;;;;11.33;100.00;100116.50;5073781;28;20455;-76
2022/12/26 01:24:45;;;;;;;2.72;1.17;;;;;;;11.34;100.00;100137.63;5073809;28;20078;-74
2022/12/26 01:27:10;;;;;;;2.33;0.95;;;;;;;11.33;100.00;100122.63;5072419;28;20124;-76
2022/12/26 01:29:35;;;;;;;3.40;1.60;;;;;;;11.33;100.00;100122.63;5073884;28;20051;-76
2022/12/26 01:32:01;;;;;;;3.25;1.30;;;;;;;11.34;100.00;100124.41;5073526;28;20047;-76
2022/12/26 01:34:26;;;;;;;2.45;1.30;;;;;;;11.35;100.00;100125.28;5073108;28;20048;-75
2022/12/26 01:36:52;;;;;;;3.15;1.40;;;;;;;11.36;100.00;100101.44;5073502;28;20040;-76
2022/12/26 01:39:18;;;;;;;3.08;1.48;;;;;;;11.29;100.00;100105.09;5073607;28;20054;-75
2022/12/26 01:41:43;;;;;;;2.67;1.30;;;;;;;11.26;100.00;100104.25;5073335;28;20486;-75
2022/12/26 01:44:46;;;;;;;2.17;1.10;;;;;;;11.27;100.00;100098.97;5070438;28;20060;-76
2022/12/26 01:47:11;;;;;;;3.53;1.15;;;;;;;11.26;100.00;100105.13;5072041;28;20036;-75
2022/12/26 01:49:42;;;;;;;4.60;1.48;;;;;;;11.27;100.00;100103.38;5073500;28;20047;-75
2022/12/26 01:52:37;;;;;;;3.25;1.05;;;;;;;11.31;100.00;100099.78;5071244;28;20047;-74
2022/12/26 01:55:06;;;;;;;3.97;1.55;;;;;;;11.25;100.00;100092.84;5064479;28;20052;-76
2022/12/26 01:57:39;;;;;;;3.75;1.52;;;;;;;11.33;100.00;100092.72;5072814;28;20127;-76
2022/12/26 02:00:06;;;;;;;4.57;1.90;;;;;;;11.38;100.00;100104.94;5069689;28;20076;-76
2022/12/26 02:05:35;;;;;;;2.90;1.33;;;;;;;11.48;100.00;100108.31;5070726;28;20036;-75
2022/12/26 02:08:10;;;;;;;6.97;1.63;;;;;;;11.53;100.00;100101.19;5073102;28;20037;-76
2022/12/26 02:10:45;;;;;;;2.85;1.30;;;;;;;11.54;100.00;100102.91;5072948;28;20032;-76
2022/12/26 02:13:11;;;;;;;3.25;1.75;;;;;;;11.58;100.00;100099.34;5070597;28;20040;-76
2022/12/26 02:15:38;;;;;;;4.28;1.38;;;;;;;11.59;100.00;100097.56;5072503;28;20043;-75
2022/12/26 02:18:03;;;;;;;8.10;1.88;;;;;;;11.59;100.00;100092.28;5072422;28;20101;-76
2022/12/26 02:20:39;;;;;;;4.35;1.30;;;;;;;11.69;100.00;100104.44;5072858;28;20036;-75
2022/12/26 02:23:28;;;;;;;2.92;1.30;;;;;;;11.73;100.00;100098.19;5068730;28;20035;-75
2022/12/26 02:26:44;;;;;;;2.30;1.23;;;;;;;11.71;100.00;100107.94;5072488;28;20402;-75
2022/12/26 02:29:37;;;;;;;3.97;1.60;;;;;;;11.73;100.00;100102.59;5072238;28;20123;-75
2022/12/26 02:32:25;;;;;;;2.92;1.30;;;;;;;11.74;100.00;100097.28;5068791;28;20032;-75
2022/12/26 02:34:56;;;;;;;2.95;1.40;;;;;;;11.78;100.00;100083.09;5071143;28;20040;-75
2022/12/26 02:37:36;;;;;;;4.03;1.40;;;;;;;11.81;100.00;100077.75;5072306;28;20115;-76
2022/12/26 02:40:15;;;;;;;3.10;1.40;;;;;;;11.80;99.32;100089.25;5068713;28;20083;-76
2022/12/26 02:43:12;;;;;;;2.80;1.45;;;;;;;11.79;99.54;100095.44;5072257;28;20035;-76
2022/12/26 02:48:37;;;;;;;4.60;1.35;;;;;;;11.79;99.25;100086.66;5072166;28;20091;-74
2022/12/26 03:14:59;;;;;;;4.32;1.52;;;;;;;11.68;98.46;100099.16;5071553;28;20514;-75
2022/12/26 03:17:30;;;;;;;7.43;1.50;;;;;;;11.63;98.27;100086.91;5054160;28;20048;-75
2022/12/26 03:20:04;;;;;;;5.35;1.63;;;;;;;11.60;98.63;100089.59;5071840;28;20044;-76
2022/12/26 03:22:45;;;;;;;2.53;1.42;;;;;;;11.60;98.04;100088.72;5068903;28;20067;-76
2022/12/26 03:27:58;;;;;;;2.60;1.20;;;;;;;11.58;98.99;100095.78;5071286;28;20029;-75
2022/12/26 03:34:15;;;;;;;3.53;1.55;;;;;;;11.55;98.96;100102.03;5071087;28;20435;-75
2022/12/26 03:35:53;;;;;;;4.55;1.60;;;;;;;11.59;98.15;100081.69;5071084;28;20044;-75
2022/12/26 03:38:25;;;;;;;3.85;1.60;;;;;;;11.61;98.58;100091.34;5071524;28;20040;-75
2022/12/26 04:19:22;;;;;;;4.03;1.38;;;;;;;11.65;97.82;100102.72;5088515;22;20099;-78
2022/12/26 04:19:54;;;;;;;4.63;1.70;;;;;;;11.77;96.72;100133.38;5058963;28;20044;-78
2022/12/26 04:41:35;;;;;;;4.70;2.08;;;;;;;11.77;97.21;100136.91;5065791;28;20124;-78
2022/12/26 04:45:06;;;;;;;3.10;1.58;;;;;;;11.82;96.27;100142.97;5062644;28;20047;-78
2022/12/26 04:47:32;;;;;;;3.75;1.65;;;;;;;11.87;96.16;100135.00;5059523;28;20068;-78
2022/12/26 04:50:13;;;;;;;6.00;1.77;;;;;;;11.85;95.76;100132.34;5065190;28;20028;-78
2022/12/26 04:52:58;;;;;;;2.83;1.58;;;;;;;11.96;95.45;100144.53;5066094;28;20127;-78
2022/12/26 04:55:34;;;;;;;3.92;1.48;;;;;;;11.96;95.77;100145.41;5044609;28;20060;-78
2022/12/26 04:58:01;;;;;;;4.40;1.70;;;;;;;12.03;94.98;100151.47;5060087;28;20037;-78
2022/12/26 05:00:27;;;;;;;3.63;1.65;;;;;;;12.02;94.92;100136.47;5062048;28;20040;-78
2022/12/26 05:09:33;;;;;;;5.25;1.77;;;;;;;12.09;94.78;100135.47;5064102;28;20047;-78
2022/12/26 05:11:29;;;;;;;4.68;1.67;;;;;;;12.09;94.14;100122.25;5065610;28;20047;-78
2022/12/26 05:13:56;;;;;;;5.30;1.70;;;;;;;12.08;94.28;100136.38;5064726;28;20071;-78
2022/12/26 05:30:09;;;;;;;2.40;1.27;;;;;;;11.90;95.62;100119.06;5063442;28;20052;-78
2022/12/26 05:35:18;;;;;;;2.38;1.10;;;;;;;11.93;94.95;100132.25;5060670;28;20051;-78
2022/12/26 05:37:45;;;;;;;4.53;1.73;;;;;;;11.91;95.38;100135.81;5061907;28;20033;-78
2022/12/26 05:40:11;;;;;;;3.45;1.80;;;;;;;11.92;95.22;100145.47;5065139;28;20037;-78
2022/12/26 05:42:36;;;;;;;2.38;1.17;;;;;;;11.93;95.45;100140.16;5062641;28;20036;-78
2022/12/26 05:45:02;;;;;;;2.35;1.30;;;;;;;11.90;95.47;100131.44;5063695;28;20040;-78
2022/12/26 05:47:27;;;;;;;5.10;1.63;;;;;;;11.92;95.31;100142.84;5063054;28;20047;-78
2022/12/26 05:49:52;;;;;;;3.72;1.50;;;;;;;11.90;95.34;100128.78;5064234;28;20040;-78
2022/12/26 05:52:17;;;;;;;2.75;1.58;;;;;;;11.87;95.34;100135.00;5062018;28;20041;-78
2022/12/26 05:54:43;;;;;;;7.30;2.72;;;;;;;11.80;95.38;100123.63;5064591;28;20056;-78
2022/12/26 05:57:08;;;;;;;3.03;1.52;;;;;;;11.87;95.38;100139.41;5063131;28;20040;-78
2022/12/26 05:59:33;;;;;;;4.30;1.70;;;;;;;11.89;94.67;100151.69;5062301;28;20037;-78
2022/12/26 06:01:59;;;;;;;4.85;1.25;;;;;;;11.95;94.88;100148.09;5063379;28;20106;-78
2022/12/26 06:04:25;;;;;;;2.88;1.33;;;;;;;11.94;94.63;100141.03;5063433;28;20029;-78
2022/12/26 06:06:55;;;;;;;3.80;1.42;;;;;;;11.93;94.91;100137.53;5061715;28;20044;-78
2022/12/26 06:09:21;;;;;;;4.68;1.42;;;;;;;11.93;94.47;100128.72;5057624;28;20087;-78
2022/12/26 06:11:47;;;;;;;3.33;1.15;;;;;;;11.95;94.58;100119.00;5063965;28;20122;-78
2022/12/26 06:14:12;;;;;;;5.15;1.10;;;;;;;11.88;94.63;100115.59;5063015;28;20131;-78
2022/12/26 06:16:38;;;;;;;3.42;1.10;;;;;;;11.91;94.66;100114.66;5060913;28;20040;-78
2022/12/26 06:19:04;;;;;;;3.88;1.45;;;;;;;11.87;94.69;100120.88;5063954;28;20044;-78
2022/12/26 06:21:29;;;;;;;2.65;1.05;;;;;;;11.84;95.13;100125.31;5061260;28;20044;-77
2022/12/26 06:23:54;;;;;;;3.50;1.30;;;;;;;11.83;95.46;100120.91;5060614;28;20048;-78
2022/12/26 06:26:19;;;;;;;3.97;1.48;;;;;;;11.77;95.60;100120.16;5062262;28;20044;-78
2022/12/26 06:28:46;;;;;;;4.15;1.45;;;;;;;11.74;95.96;100134.31;5062165;28;20044;-78
2022/12/26 06:31:15;;;;;;;3.17;1.35;;;;;;;11.75;95.98;100130.75;5061306;28;20459;-78
2022/12/26 06:33:40;;;;;;;3.53;1.23;;;;;;;11.75;95.85;100127.25;5063696;28;20036;-78
2022/12/26 06:36:11;;;;;;;3.53;1.33;;;;;;;11.73;95.80;100121.09;5060431;28;20036;-78
2022/12/26 06:38:37;;;;;;;4.10;1.50;;;;;;;11.67;95.89;100131.78;5061891;28;20492;-78
2022/12/26 06:41:07;;;;;;;3.22;1.25;;;;;;;11.64;96.25;100130.06;5062410;28;20048;-78
2022/12/26 06:43:32;;;;;;;3.67;1.33;;;;;;;11.57;97.00;100144.28;5059733;28;20033;-77
2022/12/26 06:45:59;;;;;;;4.35;1.50;;;;;;;11.49;97.23;100148.81;5063740;28;20045;-78
2022/12/26 06:48:25;;;;;;;2.92;1.40;;;;;;;11.42;98.01;100142.75;5060970;28;20028;-78
2022/12/26 06:50:50;;;;;;;4.93;1.20;;;;;;;11.35;98.24;100152.56;5062841;28;20059;-78
2022/12/26 06:53:16;;;;;;;4.35;1.85;;;;;;;11.35;98.59;100168.41;5061553;28;20498;-78
2022/12/26 06:55:41;;;;;;;2.35;1.05;;;;;;;11.43;98.21;100170.94;5059980;28;20121;-78
2022/12/26 06:58:06;;;;;;;3.42;1.38;;;;;;;11.51;97.53;100171.69;5063257;28;20036;-78
2022/12/26 07:00:31;;;;;;;3.67;1.23;;;;;;;11.55;97.34;100181.31;5060432;28;20056;-78
2022/12/26 07:02:57;;;;;;;3.80;1.38;;;;;;;11.57;97.25;100174.22;5058865;28;20033;-78
2022/12/26 07:05:22;;;;;;;2.55;1.23;;;;;;;11.61;96.82;100181.22;5063093;28;20040;-78
2022/12/26 07:07:51;;;;;;;4.35;1.52;;;;;;;11.66;96.80;100178.50;5061325;28;20044;-78
2022/12/26 07:10:17;;;;;;;4.05;1.95;;;;;;;11.70;96.22;100177.53;5061328;28;20499;-78
2022/12/26 07:12:42;;;;;;;4.28;1.38;;;;;;;11.71;96.26;100163.44;5059888;28;20052;-78
2022/12/26 07:15:09;;;;;;;3.10;1.35;;;;;;;11.65;96.42;100162.66;5061446;28;20494;-78
2022/12/26 07:17:35;;;;;;;2.60;1.23;;;;;;;11.55;96.87;100164.56;5062932;28;20070;-78
2022/12/26 07:20:06;;;;;;;5.63;1.50;;;;;;;11.43;97.73;100170.06;5061341;28;20111;-78
2022/12/26 07:22:32;;;;;;;8.65;2.38;;;;;;;11.33;98.11;100164.91;5060824;28;20082;-78
2022/12/26 07:24:57;;;;;;;4.20;1.55;;;;;;;11.31;97.97;100179.91;5042489;28;20041;-78
2022/12/26 07:27:22;;;;;;;2.90;1.42;;;;;;;11.39;98.26;100195.66;5060117;28;20036;-78
2022/12/26 07:29:48;;;;;;;3.58;1.30;;;;;;;11.44;98.21;100198.22;5062898;28;20055;-77
2022/12/26 07:32:13;;;;;;;4.00;1.60;;;;;;;11.53;97.86;100198.09;5060765;28;20036;-78
2022/12/26 07:34:40;;;;;;;3.67;1.55;;;;;;;11.64;96.64;100193.50;5062332;28;20052;-77
2022/12/26 07:37:05;;;;;;;2.50;1.05;;;;;;;11.73;96.00;100196.00;5060521;28;20037;-78
2022/12/26 07:39:31;;;;;;;4.05;1.25;;;;;;;11.82;95.80;100201.16;5062494;28;20044;-78
2022/12/26 07:41:56;;;;;;;4.05;1.30;;;;;;;11.88;94.81;100194.91;5057466;28;20033;-78
2022/12/26 07:44:21;;;;;;;2.60;1.20;;;;;;;11.93;94.87;100186.91;5063670;28;20391;-78
2022/12/26 07:46:46;;;;;;;3.05;1.05;;;;;;;11.87;94.47;100181.69;5061989;28;20391;-78
2022/12/26 07:49:12;;;;;;;3.38;0.98;;;;;;;11.89;94.54;100199.28;5060679;28;20040;-78
2022/12/26 07:51:37;;;;;;;3.30;1.35;;;;;;;11.87;94.40;100181.69;5060423;28;20045;-78
2022/12/26 07:54:03;;;;;;;2.47;1.15;;;;;;;11.93;94.55;100192.19;5058679;28;20118;-78
2022/12/26 07:56:30;;;;;;;2.50;1.25;;;;;;;11.90;94.64;100186.97;5059488;28;20069;-78
2022/12/26 07:58:56;;;;;;;2.40;1.23;;;;;;;11.85;94.47;100187.88;5055677;28;20033;-78
2022/12/26 08:01:21;;;;;;;2.92;1.13;;;;;;;11.88;94.50;100184.34;5062225;28;20403;-78
2022/12/26 08:03:48;;;;;;;3.05;1.30;;;;;;;11.88;94.31;100191.41;5060762;28;20029;-78
2022/12/26 08:06:14;;;;;;;3.17;1.30;;;;;;;11.83;94.47;100187.00;5060394;28;20032;-78
2022/12/26 08:08:39;;;;;;;2.95;1.17;;;;;;;11.89;94.11;100190.50;5062133;28;20036;-77
2022/12/26 08:11:07;;;;;;;2.50;1.20;;;;;;;11.93;94.30;100198.34;5059691;28;20395;-78
2022/12/26 08:13:33;;;;;;;2.90;1.10;;;;;;;11.96;94.00;100197.44;5055998;28;20037;-78
2022/12/26 08:16:07;;;;;;;3.70;1.10;;;;;;;11.99;94.19;100202.66;5061217;28;20157;-78
2022/12/26 08:18:33;;;;;;;3.92;1.70;;;;;;;12.04;93.32;100211.38;5062134;28;20033;-78
2022/12/26 08:20:58;;;;;;;2.88;1.05;;;;;;;12.07;93.29;100214.84;5059205;28;20186;-78
2022/12/26 08:23:23;;;;;;;3.70;1.20;;;;;;;12.12;93.70;100213.91;5062404;28;20041;-78
2022/12/26 08:25:49;;;;;;;2.72;1.20;;;;;;;12.13;93.34;100205.97;5059549;28;20060;-78
2022/12/26 08:28:14;;;;;;;4.40;1.15;;;;;;;12.19;92.79;100215.56;5061416;28;20038;-78
2022/12/26 08:30:40;;;;;;;2.47;1.17;;;;;;;12.19;92.87;100205.84;5059560;28;20240;-78
2022/12/26 08:33:07;;;;;;;2.22;1.02;;;;;;;12.28;92.35;100210.06;5061687;28;20039;-78
2022/12/26 08:35:33;;;;;;;3.80;1.27;;;;;;;12.35;91.59;100206.41;5058752;28;20482;-78
2022/12/26 08:38:00;;;;;;;5.45;1.55;;;;;;;12.38;91.87;100209.00;5055542;28;20040;-78
2022/12/26 08:40:25;;;;;;;3.90;1.10;;;;;;;12.44;91.75;100219.50;5060364;28;20111;-78
2022/12/26 08:42:50;;;;;;;2.40;0.88;;;;;;;12.44;91.41;100215.94;5043578;28;20036;-78
2022/12/26 08:45:16;;;;;;;2.30;1.08;;;;;;;12.48;91.28;100207.94;5060004;28;20422;-78
2022/12/26 08:47:41;;;;;;;2.97;1.10;;;;;;;12.46;90.86;100219.44;5058323;28;20055;-78
2022/12/26 08:50:06;;;;;;;4.15;1.38;;;;;;;12.48;90.73;100218.53;5062224;28;20449;-78
2022/12/26 08:52:34;;;;;;;2.38;1.10;;;;;;;12.52;90.99;100227.25;5058697;28;20404;-78
2022/12/26 08:55:00;;;;;;;3.40;1.20;;;;;;;12.55;91.21;100232.53;5059566;28;20060;-78
2022/12/26 08:57:25;;;;;;;2.30;1.00;;;;;;;12.47;90.82;100230.03;5059243;28;20072;-78
2022/12/26 08:59:51;;;;;;;3.88;1.17;;;;;;;12.55;91.45;100235.19;5061050;28;20454;-78
2022/12/26 09:02:16;;;;;;;3.00;1.40;;;;;;;12.53;90.44;100231.69;5059599;28;20063;-78
2022/12/26 09:04:41;;;;;;;2.65;1.10;;;;;;;12.59;90.77;100217.44;5059541;28;20090;-78
2022/12/26 09:07:07;;;;;;;3.15;1.10;;;;;;;12.56;90.69;100210.44;5063504;28;20072;-78
2022/12/26 09:09:33;;;;;;;3.53;1.48;;;;;;;12.57;90.71;100214.81;5061845;28;20037;-78
2022/12/26 09:11:58;;;;;;;2.00;0.90;;;;;;;12.54;91.26;100233.41;5064653;28;20449;-78
2022/12/26 09:14:24;;;;;;;2.63;1.10;;;;;;;12.55;91.29;100224.59;5064347;28;20040;-78
2022/12/26 09:16:50;;;;;;;3.33;1.13;;;;;;;12.54;91.08;100233.41;5062247;28;20040;-78
2022/12/26 09:19:16;;;;;;;4.15;1.17;;;;;;;12.56;91.46;100233.41;5065466;28;20028;-78
2022/12/26 09:21:42;;;;;;;2.47;1.27;;;;;;;12.56;91.21;100236.91;5062235;28;20037;-78
2022/12/26 09:24:13;;;;;;;3.30;1.30;;;;;;;12.59;91.94;100241.28;5064931;28;20062;-77
2022/12/26 09:26:39;;;;;;;1.92;0.90;;;;;;;12.56;91.54;100252.78;5065592;28;20448;-78
2022/12/26 09:29:04;;;;;;;4.95;1.25;;;;;;;12.50;91.49;100247.63;5062959;28;20065;-77
2022/12/26 09:31:33;;;;;;;3.30;1.30;;;;;;;12.49;91.25;100251.16;5065298;28;20127;-78
2022/12/26 09:34:03;;;;;;;3.40;1.23;;;;;;;12.54;91.30;100235.19;5059156;28;20037;-78
2022/12/26 09:36:30;;;;;;;2.30;1.00;;;;;;;12.54;91.09;100238.72;5063031;28;20025;-78
2022/12/26 09:38:57;;;;;;;3.72;0.90;;;;;;;12.56;91.42;100241.34;5064427;28;20052;-78
2022/12/26 09:41:42;;;;;;;2.97;0.88;;;;;;;12.55;90.62;100237.81;5062221;28;20036;-78
2022/12/26 09:44:28;;;;;;;2.53;1.20;;;;;;;12.55;90.75;100240.47;5059903;28;20037;-78
2022/12/26 09:47:06;;;;;;;5.85;1.38;;;;;;;12.61;90.77;100235.06;5061671;28;20491;-78
2022/12/26 09:49:38;;;;;;;2.78;1.08;;;;;;;12.67;91.38;100244.63;5078254;23;20082;-76
2022/12/26 09:52:12;;;;;;;3.58;1.38;;;;;;;12.69;90.66;100249.00;5074038;28;20079;-77
2022/12/26 09:54:46;;;;;;;3.72;1.42;;;;;;;12.68;91.27;100246.38;5073973;28;20052;-76
2022/12/26 09:57:18;;;;;;;3.17;1.10;;;;;;;12.69;91.93;100237.56;5073992;28;20043;-77
2022/12/26 09:59:49;;;;;;;;;;;;;;;12.75;92.29;100231.25;5074424;28;20037;-76
2022/12/26 10:02:21;;;;;;;2.10;1.00;;;;;;;12.78;92.18;100236.47;5070953;28;19913;-76
2022/12/26 10:04:46;;;;;;;2.25;0.98;;;;;;;12.76;91.58;100233.88;5073808;28;20028;-77
2022/12/26 10:07:24;;;;;;;2.47;1.00;;;;;;;12.81;91.97;100229.38;5080843;28;20441;-76
2022/12/26 10:10:08;;;;;;;3.47;0.90;;;;;;;12.95;90.62;100226.44;5070924;28;20032;-76
2022/12/26 10:12:51;;;;;;;2.00;0.95;;;;;;;13.00;90.59;100229.00;5070039;28;20043;-76
2022/12/26 10:15:29;;;;;;;4.05;1.05;;;;;;;13.07;89.72;100225.28;5085456;28;20056;-76
2022/12/26 10:18:09;;;;;;;3.47;1.23;;;;;;;13.15;88.87;100221.59;5073349;28;20037;-76
2022/12/26 10:20:56;;;;;;;2.78;1.17;;;;;;;13.18;89.04;100239.19;5083909;28;20601;-77
2022/12/26 10:23:37;;;;;;;3.30;1.17;;;;;;;13.21;89.23;100230.31;5069853;28;20793;-76
2022/12/26 10:26:17;;;;;;;5.57;1.60;;;;;;;13.16;89.58;100217.16;5072840;28;20524;-77
2022/12/26 10:28:45;;;;;;;2.85;0.98;;;;;;;13.06;89.84;100226.22;5071412;28;20123;-77
2022/12/26 10:31:29;;;;;;;2.60;1.00;;;;;;;13.07;89.94;100230.59;5072062;28;20399;-76
2022/12/26 10:34:07;;;;;;;3.53;1.02;;;;;;;13.01;89.96;100226.28;5071177;28;20040;-77
2022/12/26 10:36:47;;;;;;;5.32;1.00;;;;;;;13.03;90.09;100239.53;5085160;28;20032;-77
2022/12/26 10:39:19;;;;;;;3.28;1.15;;;;;;;13.03;90.53;100227.13;5073304;28;20116;-77
2022/12/26 10:41:49;;;;;;;2.70;1.15;;;;;;;13.00;90.73;100231.66;5069841;28;20043;-76
2022/12/26 10:44:15;;;;;;;2.40;1.00;;;;;;;12.89;90.99;100229.19;5073209;28;20024;-77
2022/12/26 10:47:06;;;;;;;4.38;1.25;;;;;;;12.91;91.84;100227.38;5072380;28;20493;-76
2022/12/26 10:49:31;;;;;;;2.55;1.08;;;;;;;12.91;91.90;100222.97;5071564;28;20087;-76
2022/12/26 10:52:00;;;;;;;3.30;1.13;;;;;;;12.88;92.60;100228.31;5072982;28;20064;-76
2022/12/26 10:54:28;;;;;;;4.30;1.00;;;;;;;12.86;92.72;100234.56;5069260;28;20121;-76
2022/12/26 10:56:55;;;;;;;3.97;1.02;;;;;;;12.85;92.56;100238.97;5072365;28;20036;-77
2022/12/26 10:59:26;;;;;;;3.63;1.35;;;;;;;12.79;94.02;100239.13;5072560;28;20414;-76
2022/12/26 11:01:52;;;;;;;2.17;0.73;;;;;;;12.66;95.35;100233.19;5072496;28;20689;-76
2022/12/26 11:04:17;;;;;;;1.77;0.70;;;;;;;12.53;95.71;100229.03;5072276;28;20357;-76
2022/12/26 11:06:43;;;;;;;2.45;0.80;;;;;;;12.42;96.58;100242.47;5070566;28;20415;-76
2022/12/26 11:09:23;;;;;;;2.40;1.17;;;;;;;12.40;98.38;100224.88;5072010;28;20123;-77
2022/12/26 11:11:51;;;;;;;3.67;1.30;;;;;;;12.27;100.00;100225.09;5068540;28;20024;-77
2022/12/26 11:14:30;;;;;;;3.05;1.10;;;;;;;12.24;100.00;100235.72;5072065;28;20115;-76
2022/12/26 11:17:04;;;;;;;4.35;1.13;;;;;;;12.20;100.00;100233.16;5071772;28;20040;-76
2022/12/26 11:19:37;;;;;;;3.45;1.17;;;;;;;12.16;100.00;100245.56;5079765;28;20068;-76
2022/12/26 11:22:26;;;;;;;4.85;1.23;;;;;;;12.17;100.00;100244.66;5070765;28;20554;-76
2022/12/26 11:25:15;;;;;;;5.90;1.40;;;;;;;12.16;100.00;100256.16;5071172;28;20410;-76
2022/12/26 11:27:46;;;;;;;5.07;1.40;;;;;;;12.15;100.00;100240.31;5070451;28;20628;-76
2022/12/26 11:30:14;;;;;;;5.15;1.50;;;;;;;12.11;100.00;100239.50;5069757;28;20043;-76
2022/12/26 11:32:48;;;;;;;3.78;1.00;;;;;;;12.07;100.00;100240.44;5071622;28;20483;-76
2022/12/26 11:35:23;;;;;;;2.90;1.33;;;;;;;11.98;100.00;100238.81;5071310;28;20403;-76
2022/12/26 11:37:55;;;;;;;3.33;1.08;;;;;;;11.87;100.00;100239.88;5068792;28;20122;-76
2022/12/26 11:40:26;;;;;;;2.90;1.50;;;;;;;11.85;100.00;100243.41;5071744;28;20693;-76
2022/12/26 11:42:56;;;;;;;3.53;1.38;;;;;;;11.88;100.00;100236.34;5083665;28;20407;-76
2022/12/26 11:45:26;;;;;;;4.15;1.33;;;;;;;11.95;100.00;100224.78;5071407;28;20040;-76
2022/12/26 11:47:54;;;;;;;4.70;1.60;;;;;;;12.00;100.00;100226.44;5071429;28;20039;-76
2022/12/26 11:50:23;;;;;;;3.95;1.30;;;;;;;12.07;100.00;100216.63;5071751;28;20490;-76
2022/12/26 11:52:57;;;;;;;4.00;1.48;;;;;;;12.11;100.00;100222.75;5070613;28;20474;-76
2022/12/26 11:55:25;;;;;;;4.07;1.60;;;;;;;12.17;100.00;100226.16;5070184;28;20032;-76
2022/12/26 11:57:56;;;;;;;3.25;1.48;;;;;;;12.23;100.00;100223.38;5071447;28;20028;-76
2022/12/26 12:00:23;;;;;;;4.15;1.75;;;;;;;12.28;100.00;100215.38;5079275;28;20032;-76
2022/12/26 12:02:49;;;;;;;6.18;1.50;;;;;;;12.30;100.00;100212.72;5071437;28;20021;-76
2022/12/26 12:05:28;;;;;;;2.75;1.17;;;;;;;12.30;100.00;100212.72;5071315;28;20037;-77
2022/12/26 12:08:19;;;;;;;4.53;1.30;;;;;;;12.26;100.00;100222.44;5068713;28;20043;-76
2022/12/26 12:10:50;;;;;;;3.42;1.38;;;;;;;12.18;100.00;100229.66;5069100;28;20538;-76
2022/12/26 12:13:45;;;;;;;5.03;1.10;;;;;;;12.10;100.00;100231.56;5071060;28;20577;-76
2022/12/26 12:16:35;;;;;;;3.92;1.63;;;;;;;11.53;100.00;100251.84;5070418;28;20513;-76
2022/12/26 12:19:16;;;;;;;2.65;1.10;;;;;;;10.91;100.00;100251.75;5070915;28;20036;-76
2022/12/26 12:22:13;;;;;;;2.05;0.68;;;;;;;10.43;100.00;100243.50;5071220;28;20043;-77
2022/12/26 12:24:51;;;;;;;1.52;0.70;;;;;;;10.19;100.00;100264.78;5064637;28;20040;-76
2022/12/26 12:27:29;;;;;;;2.42;0.45;;;;;;;10.07;100.00;100256.09;5070896;28;20035;-76
2022/12/26 12:30:16;;;;;;;0.88;0.43;;;;;;;9.98;100.00;100256.19;5066430;28;20442;-76
2022/12/26 12:32:59;;;;;;;1.55;0.38;;;;;;;9.97;100.00;100258.81;5067222;28;20037;-76
2022/12/26 12:35:56;;;;;;;1.30;0.68;;;;;;;9.92;100.00;100266.75;5070028;28;20120;-76
2022/12/26 12:38:30;;;;;;;3.10;0.88;;;;;;;9.90;100.00;100286.97;5067244;28;20029;-76
2022/12/26 12:41:22;;;;;;;1.83;0.50;;;;;;;9.92;100.00;100286.97;5069315;28;20044;-76
2022/12/26 12:44:03;;;;;;;1.38;0.40;;;;;;;9.93;100.00;100279.06;5073610;28;20115;-76
2022/12/26 12:46:51;;;;;;;1.95;0.90;;;;;;;9.95;100.00;100277.28;5072046;28;20071;-75
2022/12/26 12:49:33;;;;;;;5.05;2.00;;;;;;;9.98;100.00;100274.66;5071983;28;20044;-76
2022/12/26 12:52:32;;;;;;;3.33;1.80;;;;;;;10.04;100.00;100276.34;5071134;28;20119;-76
2022/12/26 12:55:14;;;;;;;5.97;1.77;;;;;;;10.07;100.00;100286.88;5072193;28;20041;-76
2022/12/26 12:57:45;;;;;;;4.60;2.00;;;;;;;10.06;100.00;100293.91;5070760;28;20051;-76
2022/12/26 13:00:13;;;;;;;5.10;1.50;;;;;;;10.03;100.00;100293.94;5074507;28;20434;-76
2022/12/26 13:02:52;;;;;;;4.68;1.70;;;;;;;10.04;100.00;100282.50;5074579;28;20673;-76
2022/12/26 13:05:56;;;;;;;3.35;1.40;;;;;;;10.06;100.00;100293.91;5072003;28;20059;-76
2022/12/26 13:08:41;;;;;;;4.30;1.35;;;;;;;9.97;100.00;100307.16;5042436;28;20095;-76
2022/12/26 13:11:31;;;;;;;3.33;1.10;;;;;;;9.92;100.00;100300.16;5071901;28;20047;-76
2022/12/26 13:14:12;;;;;;;2.83;0.90;;;;;;;9.86;100.00;100298.44;5073023;28;20060;-76
2022/12/26 13:16:42;;;;;;;2.42;0.90;;;;;;;9.85;100.00;100288.78;5086430;28;20041;-75
2022/12/26 13:19:50;;;;;;;2.70;1.48;;;;;;;9.86;100.00;100294.06;5074468;28;20035;-76
2022/12/26 13:25:26;;;;;;;2.78;1.17;;;;;;;9.87;100.00;100298.41;5073170;28;20067;-76
2022/12/26 13:27:55;;;;;;;2.30;0.82;;;;;;;9.82;100.00;100312.53;5073901;28;20096;-76
2022/12/26 13:30:21;;;;;;;2.25;1.00;;;;;;;9.81;100.00;100321.31;5073863;28;20131;-76
2022/12/26 13:32:47;;;;;;;3.47;0.90;;;;;;;9.80;100.00;100320.47;5072729;28;20123;-76
2022/12/26 13:35:49;;;;;;;2.05;0.70;;;;;;;9.79;100.00;100333.63;5073674;28;20471;-75
2022/12/26 13:38:14;;;;;;;2.38;1.00;;;;;;;9.79;100.00;100323.09;5071300;28;20048;-76